createdAt,value
2018-06-11T00:01:06.806Z,73.00
2018-06-11T00:03:34.312Z,73.20
2018-06-11T00:06:01.835Z,73.30
2018-06-11T00:08:29.367Z,73.50
2018-06-11T00:10:56.923Z,73.30
2018-06-11T00:13:24.481Z,74.10
2018-06-11T00:15:51.955Z,74.00
2018-06-11T00:18:19.432Z,73.90
2018-06-11T00:20:46.979Z,74.60
2018-06-11T00:23:14.597Z,74.10
2018-06-11T00:25:42.243Z,73.90
2018-06-11T00:28:09.835Z,74.10
2018-06-11T00:30:37.386Z,73.90
2018-06-11T00:33:04.998Z,73.90
2018-06-11T00:35:32.490Z,73.60
2018-06-11T00:38:14.704Z,74.00
2018-06-11T00:40:42.201Z,73.50
2018-06-11T00:43:09.819Z,73.60
2018-06-11T00:45:37.317Z,73.20
2018-06-11T00:48:24.302Z,73.30
2018-06-11T00:50:51.839Z,74.10
2018-06-11T00:53:19.354Z,74.50
2018-06-11T00:55:58.322Z,74.20
2018-06-11T00:58:25.832Z,74.50
2018-06-11T01:00:53.451Z,73.80
2018-06-11T01:03:20.965Z,74.30
2018-06-11T01:05:48.498Z,74.10
2018-06-11T01:08:16.002Z,73.70
2018-06-11T01:10:45.654Z,73.90
2018-06-11T01:13:13.176Z,74.10
2018-06-11T01:15:40.745Z,74.00
2018-06-11T01:18:08.308Z,73.90
2018-06-11T01:20:35.830Z,73.70
2018-06-11T01:23:03.322Z,73.10
2018-06-11T01:25:30.789Z,72.70
2018-06-11T01:27:58.412Z,72.60
2018-06-11T01:30:25.998Z,72.30
2018-06-11T01:32:53.547Z,72.80
2018-06-11T01:35:22.048Z,72.30
2018-06-11T01:37:49.517Z,72.40
2018-06-11T01:40:17.013Z,72.90
2018-06-11T01:42:44.520Z,72.90
2018-06-11T01:45:12.019Z,73.00
2018-06-11T01:47:39.536Z,72.80
2018-06-11T01:50:07.091Z,73.10
2018-06-11T01:52:34.664Z,72.60
2018-06-11T01:55:02.209Z,72.80
2018-06-11T01:57:29.754Z,72.60
2018-06-11T01:59:57.448Z,72.40
2018-06-11T02:02:24.954Z,72.40
2018-06-11T02:04:52.492Z,72.20
2018-06-11T02:07:19.960Z,72.00
2018-06-11T02:09:47.489Z,72.80
2018-06-11T02:12:15.054Z,72.00
2018-06-11T02:14:42.549Z,71.70
2018-06-11T02:17:10.090Z,72.00
2018-06-11T02:19:37.605Z,72.00
2018-06-11T02:22:05.107Z,72.20
2018-06-11T02:24:32.626Z,72.50
2018-06-11T02:27:00.186Z,72.30
2018-06-11T02:29:27.714Z,72.30
2018-06-11T02:31:55.322Z,72.40
2018-06-11T02:34:22.848Z,72.60
2018-06-11T02:36:50.493Z,72.60
2018-06-11T02:39:18.077Z,72.40
2018-06-11T02:41:45.626Z,72.30
2018-06-11T02:44:13.146Z,71.60
2018-06-11T02:46:40.685Z,71.40
2018-06-11T02:49:08.210Z,70.60
2018-06-11T02:51:35.693Z,70.90
2018-06-11T02:54:03.380Z,70.60
2018-06-11T02:56:30.879Z,70.50
2018-06-11T02:58:58.514Z,70.50
2018-06-11T03:01:26.079Z,70.80
2018-06-11T03:03:53.568Z,71.40
2018-06-11T03:06:21.071Z,71.80
2018-06-11T03:08:48.692Z,72.80
2018-06-11T03:11:16.209Z,72.10
2018-06-11T03:13:43.820Z,72.40
2018-06-11T03:16:11.365Z,72.50
2018-06-11T03:18:38.911Z,72.40
2018-06-11T03:21:06.706Z,72.80
2018-06-11T03:23:34.241Z,72.70
2018-06-11T03:26:01.783Z,72.40
2018-06-11T03:28:29.506Z,73.20
2018-06-11T03:30:57.087Z,72.90
2018-06-11T03:33:24.656Z,73.00
2018-06-11T03:35:52.185Z,72.90
2018-06-11T03:38:19.720Z,72.80
2018-06-11T03:40:47.247Z,73.10
2018-06-11T03:43:14.764Z,73.50
2018-06-11T03:45:42.257Z,73.80
2018-06-11T03:48:09.724Z,73.80
2018-06-11T03:50:37.292Z,73.20
2018-06-11T03:53:04.791Z,73.90
2018-06-11T03:55:32.295Z,73.50
2018-06-11T03:57:59.828Z,73.10
2018-06-11T04:00:27.313Z,73.50
2018-06-11T04:02:54.759Z,73.00
2018-06-11T04:05:22.381Z,73.30
2018-06-11T04:07:51.118Z,73.10
2018-06-11T04:10:18.674Z,73.70
2018-06-11T04:12:46.221Z,73.70
2018-06-11T04:15:13.742Z,74.00
2018-06-11T04:17:41.340Z,74.20
2018-06-11T04:20:09.015Z,74.90
2018-06-11T04:22:36.549Z,74.60
2018-06-11T04:25:09.924Z,75.20
2018-06-11T04:27:37.559Z,75.60
2018-06-11T04:30:05.110Z,75.30
2018-06-11T04:32:32.720Z,75.40
2018-06-11T04:35:00.188Z,75.70
2018-06-11T04:37:27.806Z,75.80
2018-06-11T04:39:55.779Z,76.10
2018-06-11T04:42:23.396Z,76.20
2018-06-11T04:44:51.041Z,75.90
2018-06-11T04:47:18.556Z,75.30
2018-06-11T04:49:57.021Z,75.90
2018-06-11T04:52:24.573Z,75.90
2018-06-11T04:54:52.095Z,76.20
2018-06-11T04:57:19.610Z,75.00
2018-06-11T04:59:47.297Z,76.00
2018-06-11T05:02:14.814Z,75.20
2018-06-11T05:04:42.367Z,76.40
2018-06-11T05:07:09.938Z,77.60
2018-06-11T05:09:38.477Z,77.30
2018-06-11T05:12:06.041Z,76.70
2018-06-11T05:14:33.574Z,76.60
2018-06-11T05:17:01.034Z,76.10
2018-06-11T05:19:28.528Z,75.80
2018-06-11T05:21:56.118Z,75.60
2018-06-11T05:24:23.678Z,75.60
2018-06-11T05:26:51.215Z,75.50
2018-06-11T05:29:18.718Z,75.30
2018-06-11T05:31:46.326Z,75.30
2018-06-11T05:34:13.893Z,75.50
2018-06-11T05:36:41.412Z,76.90
2018-06-11T05:39:08.914Z,76.20
2018-06-11T05:41:36.426Z,75.80
2018-06-11T05:44:03.997Z,76.40
2018-06-11T05:46:31.624Z,75.70
2018-06-11T05:48:59.126Z,76.00
2018-06-11T05:51:26.640Z,76.80
2018-06-11T05:53:54.229Z,76.50
2018-06-11T05:56:21.765Z,76.30
2018-06-11T05:58:49.186Z,76.60
2018-06-11T06:01:16.672Z,77.00
2018-06-11T06:03:44.207Z,77.90
2018-06-11T06:06:11.784Z,79.20
2018-06-11T06:08:39.392Z,80.50
2018-06-11T06:11:06.944Z,81.70
2018-06-11T06:13:36.532Z,81.40
2018-06-11T06:16:04.076Z,81.10
2018-06-11T06:18:31.693Z,81.00
2018-06-11T06:20:59.257Z,80.50
2018-06-11T06:23:26.785Z,80.90
2018-06-11T06:25:54.302Z,81.20
2018-06-11T06:28:21.825Z,81.30
2018-06-11T06:30:49.362Z,78.70
2018-06-11T06:33:16.954Z,78.70
2018-06-11T06:35:44.584Z,78.30
2018-06-11T06:38:12.104Z,80.40
2018-06-11T06:40:39.695Z,80.40
2018-06-11T06:43:12.000Z,80.70
2018-06-11T06:45:39.665Z,81.10
2018-06-11T06:48:13.362Z,80.70
2018-06-11T06:50:52.275Z,80.50
2018-06-11T06:53:19.785Z,81.00
2018-06-11T06:55:47.371Z,80.80
2018-06-11T06:58:14.854Z,80.60
2018-06-11T07:00:42.362Z,80.60
2018-06-11T07:03:09.916Z,80.90
2018-06-11T07:05:37.456Z,80.10
2018-06-11T07:08:05.048Z,80.20
2018-06-11T07:10:32.564Z,79.70
2018-06-11T07:13:00.069Z,79.60
2018-06-11T07:15:27.652Z,80.20
2018-06-11T07:17:55.105Z,79.70
2018-06-11T07:20:22.676Z,79.40
2018-06-11T07:22:50.196Z,78.70
2018-06-11T07:25:17.698Z,79.40
2018-06-11T07:27:45.321Z,80.50
2018-06-11T07:30:12.830Z,80.20
2018-06-11T07:32:40.447Z,80.40
2018-06-11T07:35:08.081Z,78.90
2018-06-11T07:37:35.593Z,78.80
2018-06-11T07:40:03.254Z,77.90
2018-06-11T07:42:30.886Z,78.00
2018-06-11T07:44:58.410Z,79.50
2018-06-11T07:47:25.972Z,78.70
2018-06-11T07:49:53.509Z,78.10
2018-06-11T07:52:21.063Z,77.90
2018-06-11T07:54:48.542Z,77.90
2018-06-11T07:57:16.144Z,77.70
2018-06-11T07:59:43.733Z,77.80
2018-06-11T08:02:11.255Z,77.10
2018-06-11T08:04:38.788Z,77.80
2018-06-11T08:07:07.382Z,77.00
2018-06-11T08:09:34.958Z,77.40
2018-06-11T08:12:03.558Z,77.20
2018-06-11T08:14:31.125Z,77.60
2018-06-11T08:16:58.744Z,76.40
2018-06-11T08:22:24.734Z,75.60
2018-06-11T08:24:52.364Z,75.70
2018-06-11T08:27:20.046Z,75.00
2018-06-11T08:32:42.904Z,76.10
2018-06-11T08:35:10.520Z,75.10
2018-06-11T08:37:38.045Z,74.90
2018-06-11T08:40:05.687Z,74.80
2018-06-11T08:42:33.293Z,75.10
2018-06-11T08:45:00.862Z,74.50
2018-06-11T08:47:28.461Z,74.60
2018-06-11T08:49:56.102Z,74.70
2018-06-11T08:52:24.114Z,73.40
2018-06-11T08:54:51.832Z,73.50
2018-06-11T08:57:19.404Z,75.00
2018-06-11T08:59:47.004Z,75.30
2018-06-11T09:02:15.398Z,72.50
2018-06-11T09:04:42.963Z,72.30
2018-06-11T09:07:10.532Z,72.60
2018-06-11T09:09:38.154Z,73.40
2018-06-11T09:12:05.752Z,74.10
2018-06-11T09:14:33.321Z,74.40
2018-06-11T09:17:00.974Z,73.30
2018-06-11T09:19:29.624Z,72.40
2018-06-11T09:21:57.260Z,71.00
2018-06-11T09:24:24.878Z,70.20
2018-06-11T09:26:52.487Z,71.20
2018-06-11T09:29:19.977Z,71.20
2018-06-11T09:31:47.495Z,71.70
2018-06-11T09:34:19.786Z,69.80
2018-06-11T09:36:47.379Z,70.50
2018-06-11T09:39:14.945Z,70.20
2018-06-11T09:41:42.503Z,69.70
2018-06-11T09:44:10.071Z,69.80
2018-06-11T09:46:38.645Z,68.90
2018-06-11T09:49:06.218Z,68.70
2018-06-11T09:51:33.853Z,69.70
2018-06-11T09:54:01.482Z,69.60
2018-06-11T09:56:29.335Z,69.00
2018-06-11T09:58:56.914Z,69.30
2018-06-11T10:01:24.430Z,68.90
2018-06-11T10:03:52.046Z,69.00
2018-06-11T10:06:19.635Z,69.30
2018-06-11T10:08:47.184Z,69.10
2018-06-11T10:11:14.839Z,69.60
2018-06-11T10:13:42.711Z,70.10
2018-06-11T10:16:18.221Z,70.00
2018-06-11T10:18:45.729Z,69.30
2018-06-11T10:21:13.332Z,68.60
2018-06-11T10:23:40.908Z,68.30
2018-06-11T10:26:08.509Z,68.20
2018-06-11T10:28:52.088Z,68.90
2018-06-11T10:31:19.882Z,69.10
2018-06-11T10:33:47.496Z,68.90
2018-06-11T10:36:15.133Z,70.50
2018-06-11T10:38:47.207Z,70.30
2018-06-11T10:41:14.853Z,70.30
2018-06-11T10:43:42.505Z,70.20
2018-06-11T10:49:22.541Z,71.10
2018-06-11T10:51:50.072Z,71.10
2018-06-11T10:54:17.606Z,70.60
2018-06-11T10:56:45.231Z,70.50
2018-06-11T10:59:12.807Z,71.30
2018-06-11T11:01:46.715Z,70.70
2018-06-11T11:04:14.648Z,71.10
2018-06-11T11:06:42.709Z,71.90
2018-06-11T11:09:10.379Z,70.50
2018-06-11T11:11:38.103Z,71.30
2018-06-11T11:14:05.899Z,70.90
2018-06-11T11:16:33.965Z,69.60
2018-06-11T11:19:01.731Z,69.00
2018-06-11T11:21:29.512Z,69.60
2018-06-11T11:23:57.134Z,69.70
2018-06-11T11:26:24.876Z,69.20
2018-06-11T11:28:52.647Z,69.80
2018-06-11T11:31:20.257Z,69.30
2018-06-11T11:33:48.052Z,68.30
2018-06-11T11:36:15.754Z,67.60
2018-06-11T11:38:51.313Z,67.30
2018-06-11T11:41:18.930Z,67.00
2018-06-11T11:43:46.437Z,67.00
2018-06-11T11:46:13.951Z,67.40
2018-06-11T11:48:41.530Z,68.50
2018-06-11T11:51:09.127Z,68.40
2018-06-11T11:53:36.784Z,68.20
2018-06-11T11:56:04.513Z,67.50
2018-06-11T11:58:32.132Z,66.40
2018-06-11T12:00:59.680Z,67.10
2018-06-11T12:03:27.213Z,67.40
2018-06-11T12:05:54.821Z,67.70
2018-06-11T12:08:23.462Z,65.00
2018-06-11T12:10:51.098Z,65.20
2018-06-11T12:13:18.683Z,64.90
2018-06-11T12:15:46.328Z,64.90
2018-06-11T12:18:13.844Z,63.70
2018-06-11T12:20:48.746Z,63.80
2018-06-11T12:23:16.293Z,63.80
2018-06-11T12:25:43.800Z,64.70
2018-06-11T12:28:11.338Z,63.10
2018-06-11T12:30:39.240Z,62.20
2018-06-11T12:33:07.354Z,63.00
2018-06-11T12:35:38.540Z,63.90
2018-06-11T12:38:06.236Z,63.00
2018-06-11T12:40:33.903Z,64.60
2018-06-11T12:43:04.969Z,63.40
2018-06-11T12:45:32.659Z,62.90
2018-06-11T12:48:00.429Z,63.00
2018-06-11T12:50:28.388Z,62.90
2018-06-11T12:52:56.563Z,63.70
2018-06-11T12:55:24.247Z,64.40
2018-06-11T12:57:52.019Z,64.70
2018-06-11T13:00:19.693Z,64.40
2018-06-11T13:02:47.263Z,64.40
2018-06-11T13:05:14.991Z,64.60
2018-06-11T13:07:42.675Z,64.60
2018-06-11T13:10:10.386Z,64.40
2018-06-11T13:12:37.994Z,64.10
2018-06-11T13:15:05.798Z,64.30
2018-06-11T13:17:33.502Z,64.50
2018-06-11T13:20:01.241Z,63.90
2018-06-11T13:22:28.991Z,64.30
2018-06-11T13:24:56.780Z,64.70
2018-06-11T13:27:24.508Z,65.30
2018-06-11T13:29:52.252Z,65.50
2018-06-11T13:32:20.017Z,66.90
2018-06-11T13:34:47.809Z,67.30
2018-06-11T13:37:15.529Z,68.30
2018-06-11T13:39:43.182Z,67.40
2018-06-11T13:42:10.933Z,67.60
2018-06-11T13:44:38.692Z,66.40
2018-06-11T13:47:06.281Z,66.60
2018-06-11T13:49:34.108Z,66.20
2018-06-11T13:52:01.938Z,66.40
2018-06-11T13:54:30.026Z,66.10
2018-06-11T13:56:57.834Z,65.70
2018-06-11T13:59:25.580Z,65.20
2018-06-11T14:04:49.495Z,66.50
2018-06-11T14:07:17.227Z,67.10
2018-06-11T14:09:44.959Z,66.40
2018-06-11T14:12:12.721Z,62.40
2018-06-11T14:14:40.433Z,62.20
2018-06-11T14:17:08.098Z,59.90
2018-06-11T14:19:35.745Z,59.80
2018-06-11T14:22:03.446Z,60.50
2018-06-11T14:24:31.162Z,60.20
2018-06-11T14:26:58.911Z,61.50
2018-06-11T14:29:26.863Z,66.50
2018-06-11T14:31:54.806Z,69.50
2018-06-11T14:34:22.540Z,71.30
2018-06-11T14:36:50.447Z,72.00
2018-06-11T14:39:18.332Z,72.00
2018-06-11T14:41:46.598Z,73.20
2018-06-11T14:44:14.255Z,74.50
2018-06-11T14:46:42.023Z,73.40
2018-06-11T14:49:09.731Z,73.70
2018-06-11T14:51:37.428Z,73.80
2018-06-11T14:54:05.170Z,73.80
2018-06-11T14:56:32.829Z,73.80
2018-06-11T14:59:00.495Z,72.50
2018-06-11T15:01:28.126Z,72.90
2018-06-11T15:03:55.730Z,73.40
2018-06-11T15:06:23.408Z,74.20
2018-06-11T15:08:51.089Z,74.60
2018-06-11T15:11:18.744Z,75.30
2018-06-11T15:13:46.502Z,75.30
2018-06-11T15:16:14.164Z,75.70
2018-06-11T15:18:41.959Z,75.60
2018-06-11T15:21:09.646Z,75.60
2018-06-11T15:23:37.369Z,75.80
2018-06-11T15:26:05.082Z,76.20
2018-06-11T15:28:32.784Z,75.00
2018-06-11T15:31:00.533Z,75.10
2018-06-11T15:33:45.107Z,76.00
2018-06-11T15:36:12.992Z,74.70
2018-06-11T15:38:40.703Z,75.80
2018-06-11T15:41:08.543Z,76.30
2018-06-11T15:43:37.402Z,76.60
2018-06-11T15:46:05.343Z,76.40
2018-06-11T15:48:33.048Z,77.00
2018-06-11T15:51:01.230Z,76.70
2018-06-11T15:53:29.233Z,76.20
2018-06-11T15:55:57.281Z,76.50
2018-06-11T15:58:24.954Z,76.10
2018-06-11T16:00:52.828Z,76.00
2018-06-11T16:03:42.066Z,75.80
2018-06-11T16:06:09.815Z,75.80
2018-06-11T16:08:37.620Z,76.00
2018-06-11T16:11:05.322Z,76.20
2018-06-11T16:13:33.062Z,76.60
2018-06-11T16:16:00.657Z,76.20
2018-06-11T16:18:28.734Z,76.60
2018-06-11T16:20:56.513Z,76.90
2018-06-11T16:23:24.179Z,76.20
2018-06-11T16:25:52.032Z,75.60
2018-06-11T16:28:19.654Z,76.00
2018-06-11T16:30:47.323Z,76.30
2018-06-11T16:33:20.470Z,77.40
2018-06-11T16:35:48.072Z,77.20
2018-06-11T16:38:15.785Z,77.10
2018-06-11T16:40:43.290Z,77.70
2018-06-11T16:43:10.914Z,77.90
2018-06-11T16:45:38.522Z,78.40
2018-06-11T16:48:06.243Z,78.20
2018-06-11T16:50:33.876Z,77.90
2018-06-11T16:53:01.400Z,77.60
2018-06-11T16:55:28.956Z,77.20
2018-06-11T16:57:56.645Z,77.80
2018-06-11T17:00:24.191Z,78.20
2018-06-11T17:02:51.890Z,78.70
2018-06-11T17:05:19.351Z,78.00
2018-06-11T17:07:46.892Z,78.70
2018-06-11T17:10:14.625Z,79.00
2018-06-11T17:12:42.189Z,78.10
2018-06-11T17:15:09.741Z,78.20
2018-06-11T17:17:37.364Z,78.70
2018-06-11T17:20:05.031Z,79.30
2018-06-11T17:22:32.648Z,79.80
2018-06-11T17:25:00.415Z,80.30
2018-06-11T17:27:28.082Z,79.70
2018-06-11T17:29:55.839Z,78.10
2018-06-11T17:32:23.505Z,79.10
2018-06-11T17:34:51.197Z,79.50
2018-06-11T17:37:18.872Z,79.80
2018-06-11T17:39:50.232Z,79.80
2018-06-11T17:42:17.852Z,79.80
2018-06-11T17:44:45.407Z,80.50
2018-06-11T17:47:13.162Z,80.20
2018-06-11T17:49:40.887Z,80.40
2018-06-11T17:52:08.580Z,79.70
2018-06-11T17:54:36.235Z,79.60
2018-06-11T17:57:03.821Z,79.60
2018-06-11T17:59:31.627Z,79.80
2018-06-11T18:01:59.257Z,79.20
2018-06-11T18:04:26.976Z,79.20
2018-06-11T18:06:54.603Z,79.50
2018-06-11T18:09:22.325Z,79.30
2018-06-11T18:11:49.992Z,79.80
2018-06-11T18:14:17.749Z,78.90
2018-06-11T18:16:45.377Z,78.90
2018-06-11T18:19:13.127Z,78.50
2018-06-11T18:21:40.856Z,78.10
2018-06-11T18:24:09.621Z,78.90
2018-06-11T18:26:37.237Z,78.20
2018-06-11T18:29:05.195Z,77.90
2018-06-11T18:34:32.789Z,77.70
2018-06-11T18:37:00.459Z,77.60
2018-06-11T18:39:28.272Z,77.50
2018-06-11T18:42:15.000Z,77.60
2018-06-11T18:44:42.663Z,78.20
2018-06-11T18:47:10.343Z,77.50
2018-06-11T18:49:38.035Z,77.40
2018-06-11T18:52:10.138Z,77.60
2018-06-11T18:54:37.771Z,77.50
2018-06-11T18:57:05.394Z,78.30
2018-06-11T18:59:35.102Z,78.30
2018-06-11T19:02:02.925Z,78.30
2018-06-11T19:04:30.677Z,78.10
2018-06-11T19:06:58.306Z,78.30
2018-06-11T19:09:25.914Z,78.20
2018-06-11T19:11:53.650Z,78.00
2018-06-11T19:14:21.419Z,78.20
2018-06-11T19:16:49.114Z,78.20
2018-06-11T19:19:16.827Z,78.10
2018-06-11T19:21:44.516Z,78.30
2018-06-11T19:24:12.217Z,78.20
2018-06-11T19:26:39.889Z,77.80
2018-06-11T19:32:00.325Z,77.80
2018-06-11T19:34:28.114Z,77.70
2018-06-11T19:36:55.829Z,77.70
2018-06-11T19:39:23.567Z,77.60
2018-06-11T19:41:51.283Z,77.70
2018-06-11T19:44:18.926Z,77.60
2018-06-11T19:46:47.347Z,77.20
2018-06-11T19:49:14.933Z,76.80
2018-06-11T19:51:44.685Z,76.70
2018-06-11T19:54:12.337Z,76.90
2018-06-11T19:56:51.021Z,77.00
2018-06-11T20:02:14.801Z,77.20
2018-06-11T20:04:42.900Z,76.60
2018-06-11T20:07:16.654Z,75.60
2018-06-11T20:09:44.289Z,75.80
2018-06-11T20:14:39.558Z,76.40
2018-06-11T20:17:07.199Z,76.40
2018-06-11T20:19:34.906Z,76.30
2018-06-11T20:22:02.643Z,76.10
2018-06-11T20:24:30.383Z,76.30
2018-06-11T20:26:58.140Z,76.40
2018-06-11T20:29:25.821Z,76.20
2018-06-11T20:31:53.474Z,76.00
2018-06-11T20:34:21.236Z,75.80
2018-06-11T20:36:48.901Z,75.80
2018-06-11T20:39:16.585Z,75.80
2018-06-11T20:41:44.312Z,75.60
2018-06-11T20:44:24.598Z,75.90
2018-06-11T20:46:52.239Z,75.50
2018-06-11T20:49:19.932Z,75.60
2018-06-11T20:51:47.555Z,75.70
2018-06-11T20:54:15.471Z,75.80
2018-06-11T20:56:43.180Z,75.60
2018-06-11T20:59:10.818Z,75.50
2018-06-11T21:01:38.546Z,75.40
2018-06-11T21:04:06.335Z,75.60
2018-06-11T21:06:34.166Z,75.30
2018-06-11T21:09:01.763Z,75.00
2018-06-11T21:11:29.627Z,74.40
2018-06-11T21:14:07.896Z,74.70
2018-06-11T21:16:35.573Z,75.10
2018-06-11T21:19:03.219Z,75.20
2018-06-11T21:21:30.930Z,75.40
2018-06-11T21:23:58.721Z,75.40
2018-06-11T21:26:26.375Z,75.40
2018-06-11T21:28:54.094Z,75.30
2018-06-11T21:31:21.888Z,75.10
2018-06-11T21:33:55.770Z,75.20
2018-06-11T21:36:29.791Z,74.40
2018-06-11T21:39:02.163Z,74.40
2018-06-11T21:41:30.167Z,74.30
2018-06-11T21:43:58.545Z,75.10
2018-06-11T21:46:27.184Z,75.20
2018-06-11T21:51:50.399Z,75.20
2018-06-11T21:54:18.293Z,75.50
2018-06-11T21:56:46.047Z,75.70
2018-06-11T21:59:14.143Z,75.50
2018-06-11T22:01:41.911Z,75.80
2018-06-11T22:04:09.850Z,76.00
2018-06-11T22:06:54.387Z,75.80
2018-06-11T22:09:22.377Z,75.80
2018-06-11T22:11:50.128Z,75.80
2018-06-11T22:14:35.646Z,75.80
2018-06-11T22:17:07.800Z,76.20
2018-06-11T22:19:35.510Z,75.70
2018-06-11T22:22:03.321Z,75.70
2018-06-11T22:24:31.104Z,75.70
2018-06-11T22:26:58.777Z,75.90
2018-06-11T22:29:27.085Z,76.20
2018-06-11T22:31:54.748Z,76.50
2018-06-11T22:34:22.433Z,76.60
2018-06-11T22:36:50.142Z,76.70
2018-06-11T22:39:17.870Z,76.70
2018-06-11T22:41:45.473Z,76.70
2018-06-11T22:44:13.167Z,77.20
2018-06-11T22:46:40.783Z,77.50
2018-06-11T22:49:08.384Z,77.20
2018-06-11T22:51:36.118Z,77.30
2018-06-11T22:54:03.949Z,77.10
2018-06-11T22:56:31.563Z,78.10
2018-06-11T22:58:59.208Z,77.50
2018-06-11T23:01:26.986Z,77.50
2018-06-11T23:03:54.631Z,77.60
2018-06-11T23:06:22.347Z,77.80
2018-06-11T23:08:50.011Z,77.80
2018-06-11T23:11:17.713Z,78.10
2018-06-11T23:13:51.409Z,78.20
2018-06-11T23:16:20.158Z,77.70
2018-06-11T23:18:47.786Z,77.70
2018-06-11T23:21:15.409Z,77.70
2018-06-11T23:23:42.983Z,78.40
2018-06-11T23:26:10.685Z,78.70
2018-06-11T23:28:38.387Z,78.90
2018-06-11T23:31:06.042Z,79.00
2018-06-11T23:33:33.779Z,78.30
2018-06-11T23:36:01.456Z,78.70
2018-06-11T23:38:29.147Z,78.70
2018-06-11T23:40:56.797Z,78.60
2018-06-11T23:43:24.366Z,77.90
2018-06-11T23:51:37.330Z,78.90
2018-06-11T23:54:05.073Z,78.60
2018-06-11T23:56:32.726Z,79.00
2018-06-11T23:59:00.552Z,79.10
